Aérodrome :
LOGIN :

S'inscrire | Disclaimer

   EN    FR    IT 

 










Légende :    VFR   VFR Marginal   IFR   IFR Intensif   IFR Très Intensif
Visi : 
Plafond : 
>= 8 km
>= 3000ft
5 à 8 km
1000 à 3000 ft
1500m à 5 km
500 à 1000 ft
800 à 1500m
200 à 500 ft
< 800m
< 200 ft
Symboles :   Orages  Brouillard  Fortes neiges  Fortes précipitations  Vent > 20 kt
SIGMETs :   Divers  Orages  Givrage  Turbulence  Onde Orograph.  Cendres Volcan.







- Altitude de l'aérodrome : 194 ft
- Code IATA : LME
- Voir les cartes d'approche


LFRM - Le Mans

DERNIER METAR :
  • 220000Z AUTO 24008G18KT 200V280 3300 -DZ BR OVC005 12/11 Q1016

METARs EXPIRÉS :
  • 212330Z AUTO 24009KT 210V280 3800 -DZ BR OVC005 12/11 Q1016
  • 212300Z AUTO 24008KT 200V280 5000 -DZ BR OVC005 12/11 Q1016
  • 212230Z AUTO 24009KT 200V270 5000 -RADZ BR OVC005 12/11 Q1016
  • 212200Z AUTO 24010G22KT 210V270 3500 -DZ BR OVC005 12/11 Q1016
  • 212130Z AUTO 24010KT 210V280 6000 OVC007 12/11 Q1015

TAF TAF LFRM
Valide du 21 à 18h jusqu'au 22 à 03h UTC


211700Z 2118/2203 25008KT 9999 BKN015
TEMPO 2118/2203 25015G25KT 2000 -RADZ BKN004
Pas de NOTAMs connus pour ce terrain.



MET'MAP, la Météo Aéronautique d'un coup d'oeil ! - Copyright ORBIFLY Décembre 2007 - Disclaimer

ORBIFLY MET'MAP TEAM :

Programmation & Développement : Alexandra Zaïnal
Conception & Développement : Baudouin d'Aumeries
Co-Programmation & Développement : Marc-Olivier Méhu
Soutien technique & logistique : Manuel Goepfert

Contact : metmap@orbifly.com




SOURCES & CREDITS :

   NOAA